^^
Your Local Weather - Clay, NY Station Historical Data
Daily Summary for February 1, 2017 Units:  Metric    English   Both
« Previous Day
Next Day »
Daily Weekly Monthly Yearly Custom
  High: Low: Average:
Temperature: 3.1 °C -4.7 °C -0.4 °C
Dew Point: -1.8 °C -6.5 °C -4.7 °C
Humidity: 92% 51% 74%
Wind Speed: 11.3km/h 0km/h 5.1km/h
Wind Gust: 29km/h - -
Wind- - WSW
Pressure: 1015.1 hPa 1005.3 hPa -
Precipitation: 2.54 mm    
Historical Graphs
 
 
Tabular Data for February 1, 2017
Time Temperature Dew Point Pressure Wind Wind Speed Wind Gust Humidity Rainfall Rate (Hourly) solar
00:00 -4.7 °C -6.2 °C 1005.6 hPa ESE 1.6 km/h 1.6 km/h 89% 0 mm 0 W/m2
00:06 -4.7 °C -6.2 °C 1005.3 hPa East 1.6 km/h 3.2 km/h 89% 0 mm 0 W/m2
00:12 -4.6 °C -6.2 °C 1005.3 hPa East 1.6 km/h 1.6 km/h 89% 0 mm 0 W/m2
00:18 -4.6 °C -6 °C 1005.3 hPa ENE 3.2 km/h 4.8 km/h 90% 0 mm 0 W/m2
00:24 -4.6 °C -5.9 °C 1005.3 hPa East 3.2 km/h 4.8 km/h 90% 0 mm 0 W/m2
00:30 -4.6 °C -5.9 °C 1005.3 hPa East 1.6 km/h 1.6 km/h 90% 0 mm 0 W/m2
00:36 -4.5 °C -5.9 °C 1005.3 hPa Calm   1.6 km/h 90% 0 mm 0 W/m2
00:42 -4.4 °C -5.8 °C 1005.3 hPa Calm     90% 0 mm 0 W/m2
00:48 -4.4 °C -5.8 °C 1005.3 hPa East 1.6 km/h 1.6 km/h 90% 0 mm 0 W/m2
00:54 -4.4 °C -5.8 °C 1005.3 hPa Calm   1.6 km/h 90% 0 mm 0 W/m2
01:00 -4.4 °C -5.8 °C 1005.3 hPa Calm     90% 0 mm 0 W/m2
01:06 -4.3 °C -5.7 °C 1005.3 hPa Calm   3.2 km/h 90% 0 mm 0 W/m2
01:12 -4.3 °C -5.7 °C 1005.3 hPa Calm   1.6 km/h 90% 0 mm 0 W/m2
01:18 -4.3 °C -5.7 °C 1005.3 hPa Calm   1.6 km/h 90% 0 mm 0 W/m2
01:24 -4.2 °C -5.6 °C 1005.3 hPa ENE 1.6 km/h 1.6 km/h 90% 0 mm 0 W/m2
01:30 -4.2 °C -5.6 °C 1005.3 hPa ENE 1.6 km/h 1.6 km/h 90% 0 mm 0 W/m2
01:36 -4.2 °C -5.4 °C 1005.3 hPa Calm   1.6 km/h 91% 0 mm 0 W/m2
01:42 -4.2 °C -5.4 °C 1005.3 hPa Calm   1.6 km/h 91% 0 mm 0 W/m2
01:48 -4.2 °C -5.4 °C 1005.6 hPa Calm   1.6 km/h 91% 0 mm 0 W/m2
01:54 -4.1 °C -5.4 °C 1006 hPa Calm   1.6 km/h 91% 0 mm 0 W/m2
02:00 -4.1 °C -5.3 °C 1006 hPa SE 1.6 km/h 1.6 km/h 91% 0 mm 0 W/m2
02:06 -4.1 °C -5.3 °C 1006 hPa SE 1.6 km/h 3.2 km/h 91% 0 mm 0 W/m2
02:12 -4 °C -5.3 °C 1006 hPa SSE 1.6 km/h 1.6 km/h 91% 0 mm 0 W/m2
02:18 -4 °C -5.3 °C 1006 hPa Calm   1.6 km/h 91% 0 mm 0 W/m2
02:24 -3.8 °C -5.1 °C 1006 hPa Calm   1.6 km/h 91% 0 mm 0 W/m2
02:30 -3.7 °C -4.9 °C 1006.3 hPa Calm     91% 0 mm 0 W/m2
02:36 -3.4 °C -4.7 °C 1006.3 hPa Calm   3.2 km/h 91% 0 mm 0 W/m2
02:42 -3.2 °C -4.3 °C 1006.3 hPa SW 1.6 km/h 4.8 km/h 92% 0 mm 0 W/m2
02:48 -2.9 °C -4 °C 1006.3 hPa WSW 1.6 km/h 4.8 km/h 92% 0 mm 0 W/m2
02:54 -2.7 °C -3.8 °C 1006.3 hPa Calm   1.6 km/h 92% 0 mm 0 W/m2
03:00 -2.6 °C -3.7 °C 1006.7 hPa Calm     92% 0 mm 0 W/m2
03:06 -2.3 °C -3.4 °C 1006.3 hPa Calm   1.6 km/h 92% 0 mm 0 W/m2
03:12 -2.1 °C -3.2 °C 1006.7 hPa Calm   3.2 km/h 92% 0 mm 0 W/m2
03:18 -1.9 °C -3 °C 1006.7 hPa Calm   3.2 km/h 92% 0 mm 0 W/m2
03:24 -1.7 °C -2.8 °C 1006.7 hPa WSW 1.6 km/h 4.8 km/h 92% 0 mm 0 W/m2
03:30 -1.4 °C -2.5 °C 1006.7 hPa West 1.6 km/h 6.4 km/h 92% 0 mm 0 W/m2
03:36 -1 °C -2.1 °C 1006.7 hPa West 3.2 km/h 8 km/h 92% 0 mm 0 W/m2
03:42 -0.7 °C -1.8 °C 1007 hPa West 4.8 km/h 6.4 km/h 92% 0 mm 0 W/m2
03:48 -0.7 °C -1.9 °C 1007 hPa WSW 6.4 km/h 6.4 km/h 91% 0 mm 0 W/m2
03:54 -0.8 °C -2.1 °C 1007 hPa West 8 km/h 12.9 km/h 91% 0 mm 0 W/m2
04:00 -0.8 °C -2.1 °C 1007 hPa WSW 6.4 km/h 6.4 km/h 91% 0 mm 0 W/m2
04:06 -0.7 °C -2 °C 1007.3 hPa WSW 6.4 km/h 6.4 km/h 91% 0 mm 0 W/m2
04:12 -0.8 °C -2.1 °C 1007.3 hPa West 4.8 km/h 8 km/h 91% 0 mm 0 W/m2
04:18 -0.8 °C -2.3 °C 1007.3 hPa SW 6.4 km/h 8 km/h 90% 0 mm 0 W/m2
04:24 -0.8 °C -2.4 °C 1007.3 hPa WSW 8 km/h 19.3 km/h 89% 0 mm 0 W/m2
04:30 -0.8 °C -2.5 °C 1007.3 hPa West 8 km/h 8 km/h 88% 0 mm 0 W/m2
04:36 -0.7 °C -2.8 °C 1007.3 hPa WSW 8 km/h 17.7 km/h 86% 0 mm 0 W/m2
04:42 -0.7 °C -2.9 °C 1007.3 hPa SW 8 km/h 12.9 km/h 85% 0 mm 0 W/m2
04:48 -0.6 °C -3.2 °C 1007.3 hPa West 8 km/h 12.9 km/h 83% 0 mm 0 W/m2
04:54 -0.6 °C -3.3 °C 1007.3 hPa SSW 8 km/h 14.5 km/h 82% 0 mm 0 W/m2
05:00 -0.6 °C -3.4 °C 1007.3 hPa SW 8 km/h 12.9 km/h 81% 0 mm 0 W/m2
05:06 -0.6 °C -3.4 °C 1007.3 hPa WSW 8 km/h 12.9 km/h 81% 0 mm 0 W/m2
05:12 -0.6 °C -3.6 °C 1007.3 hPa WSW 6.4 km/h 9.7 km/h 80% 0 mm 0 W/m2
05:18 -0.5 °C -3.7 °C 1007.7 hPa WSW 8 km/h 16.1 km/h 79% 0 mm 0 W/m2
05:24 -0.4 °C -3.8 °C 1007.7 hPa South 8 km/h 20.9 km/h 78% 0 mm 0 W/m2
05:30 -0.4 °C -3.9 °C 1007.7 hPa West 9.7 km/h 9.7 km/h 77% 0 mm 0 W/m2
05:36 -0.3 °C -4.1 °C 1007.7 hPa WSW 8 km/h 11.3 km/h 76% 0 mm 0 W/m2
05:42 -0.3 °C -4 °C 1008 hPa West 8 km/h 16.1 km/h 76% 0 mm 0 W/m2
05:48 -0.2 °C -4.1 °C 1008 hPa WSW 9.7 km/h 16.1 km/h 75% 0 mm 0 W/m2
05:54 -0.3 °C -4.2 °C 1008 hPa WSW 9.7 km/h 24.1 km/h 75% 0 mm 0 W/m2
06:00 -0.3 °C -4.1 °C 1008 hPa SW 8 km/h 8 km/h 76% 0 mm 0 W/m2
06:06 -0.4 °C -4.1 °C 1008 hPa WSW 6.4 km/h 8 km/h 76% 0 mm 0 W/m2
06:12 -0.4 °C -4.1 °C 1008 hPa WSW 6.4 km/h 6.4 km/h 76% 0 mm 0 W/m2
06:18 -0.4 °C -4 °C 1008 hPa SW 4.8 km/h 8 km/h 77% 0 mm 0 W/m2
06:24 -0.5 °C -4.1 °C 1008 hPa WSW 4.8 km/h 8 km/h 77% 0 mm 0 W/m2
06:30 -0.6 °C -3.9 °C 1008 hPa SW 4.8 km/h 4.8 km/h 78% 0 mm 0 W/m2
06:36 -0.6 °C -3.8 °C 1008 hPa SSW 4.8 km/h 16.1 km/h 79% 0 mm 0 W/m2
06:42 -0.7 °C -3.9 °C 1008 hPa West 6.4 km/h 6.4 km/h 79% 0 mm 0 W/m2
06:48 -0.9 °C -3.9 °C 1008.4 hPa WSW 3.2 km/h 8 km/h 80% 0 mm 0 W/m2
06:54 -0.9 °C -3.9 °C 1008.4 hPa WSW 3.2 km/h 4.8 km/h 80% 0 mm 0 W/m2
07:00 -1.1 °C -3.9 °C 1008.4 hPa WSW 3.2 km/h 3.2 km/h 81% 0 mm 0 W/m2
07:06 -1.1 °C -4.1 °C 1008.4 hPa West 3.2 km/h 4.8 km/h 80% 0 mm 0 W/m2
07:12 -1.1 °C -4.1 °C 1008.4 hPa West 4.8 km/h 8 km/h 80% 0 mm 0 W/m2
07:18 -1 °C -4 °C 1008.4 hPa West 3.2 km/h 8 km/h 80% 0 mm 0 W/m2
07:24 -1.1 °C -4.1 °C 1008.4 hPa West 3.2 km/h 4.8 km/h 80% 0 mm 0 W/m2
07:30 -1.1 °C -4.1 °C 1008.7 hPa West 1.6 km/h 3.2 km/h 80% 0 mm 5 W/m2
07:36 -1.1 °C -4.1 °C 1008.7 hPa West 1.6 km/h 3.2 km/h 80% 0 mm 5 W/m2
07:42 -1.1 °C -4.1 °C 1009 hPa West 1.6 km/h 3.2 km/h 80% 0 mm 7 W/m2
07:48 -1.1 °C -4.1 °C 1009 hPa West 3.2 km/h 4.8 km/h 80% 0 mm 11 W/m2
07:54 -0.9 °C -4.1 °C 1009 hPa West 3.2 km/h 6.4 km/h 79% 0 mm 11 W/m2
08:00 -0.8 °C -4 °C 1009 hPa WNW 1.6 km/h 1.6 km/h 79% 0 mm 14 W/m2
08:06 -0.7 °C -4.1 °C 1009 hPa WSW 3.2 km/h 4.8 km/h 78% 0 mm 16 W/m2
08:12 -0.7 °C -4.2 °C 1009 hPa West 3.2 km/h 9.7 km/h 77% 0 mm 16 W/m2
08:18 -0.6 °C -4.3 °C 1009 hPa WNW 4.8 km/h 9.7 km/h 76% 0 mm 21 W/m2
08:24 -0.4 °C -4.3 °C 1009 hPa WSW 4.8 km/h 11.3 km/h 75% 0 mm 23 W/m2
08:30 -0.4 °C -4.3 °C 1009.4 hPa West 4.8 km/h 4.8 km/h 75% 0 mm 28 W/m2
08:36 -0.3 °C -4.3 °C 1009 hPa West 6.4 km/h 6.4 km/h 74% 0 mm 30 W/m2
08:42 -0.2 °C -4.4 °C 1009.4 hPa West 6.4 km/h 14.5 km/h 73% 0 mm 40 W/m2
08:48 -0.2 °C -4.4 °C 1009.4 hPa West 8 km/h 14.5 km/h 73% 0 mm 49 W/m2
08:54 -0.1 °C -4.4 °C 1009.4 hPa NW 6.4 km/h 6.4 km/h 73% 0 mm 58 W/m2
09:00 -0.1 °C -4.6 °C 1009.4 hPa West 8 km/h 8 km/h 72% 0 mm 67 W/m2
09:06 -0.1 °C -4.5 °C 1009.4 hPa WNW 8 km/h 9.7 km/h 72% 0 mm 79 W/m2
09:12 -0.1 °C -4.5 °C 1009.4 hPa WSW 6.4 km/h 11.3 km/h 72% 0 mm 97 W/m2
09:18 0.1 °C -4.6 °C 1009.4 hPa West 9.7 km/h 11.3 km/h 71% 0 mm 125 W/m2
09:24 0.2 °C -4.5 °C 1009.4 hPa WNW 8 km/h 11.3 km/h 71% 0 mm 139 W/m2
09:30 0.3 °C -4.6 °C 1009.4 hPa West 8 km/h 8 km/h 70% 0 mm 178 W/m2
09:36 0.2 °C -4.8 °C 1009.4 hPa SW 9.7 km/h 11.3 km/h 69% 0 mm 239 W/m2
09:42 0.6 °C -4.7 °C 1009.4 hPa WNW 8 km/h 14.5 km/h 68% 0 mm 429 W/m2
09:48 0.4 °C -5 °C 1009.4 hPa WNW 9.7 km/h 16.1 km/h 67% 0 mm 193 W/m2
09:54 0.4 °C -5 °C 1009.4 hPa WNW 11.3 km/h 19.3 km/h 67% 0 mm 237 W/m2
10:00 0.8 °C -4.8 °C 1009.4 hPa NW 9.7 km/h 9.7 km/h 66% 0 mm 404 W/m2
10:06 0.9 °C -5.2 °C 1009.7 hPa West 9.7 km/h 16.1 km/h 64% 0 mm 420 W/m2
10:12 0.9 °C -5.2 °C 1009.7 hPa West 11.3 km/h 11.3 km/h 64% 0 mm 424 W/m2
10:18 1.2 °C -4.8 °C 1009.7 hPa WNW 9.7 km/h 11.3 km/h 64% 0 mm 431 W/m2
10:24 1.2 °C -5.1 °C 1009.7 hPa SW 8 km/h 11.3 km/h 63% 1.02 mm 438 W/m2
10:30 1.4 °C -4.9 °C 1009.7 hPa SW 9.7 km/h 9.7 km/h 63% 1.02 mm 448 W/m2
10:36 1.4 °C -5.3 °C 1009.7 hPa West 8 km/h 19.3 km/h 61% 1.52 mm 457 W/m2
10:42 1.5 °C -5.4 °C 1009.7 hPa SW 8 km/h 9.7 km/h 60% 1.52 mm 466 W/m2
10:48 1.6 °C -5.2 °C 1010 hPa West 8 km/h 16.1 km/h 61% 1.02 mm 543 W/m2
10:54 1.7 °C -5.3 °C 1010 hPa West 9.7 km/h 11.3 km/h 60% 1.02 mm 113 W/m2
11:00 1.4 °C -5.5 °C 1010 hPa West 9.7 km/h 11.3 km/h 60% 1.02 mm 443 W/m2
11:06 1.9 °C -4.8 °C 1010 hPa WNW 8 km/h 12.9 km/h 61% 1.02 mm 536 W/m2
11:12 1.8 °C -5.2 °C 1010 hPa WSW 8 km/h 11.3 km/h 60% 1.02 mm 276 W/m2
11:18 1.9 °C -5 °C 1010 hPa West 8 km/h 11.3 km/h 60% 1.02 mm 178 W/m2
11:24 1.8 °C -5.2 °C 1010 hPa West 6.4 km/h 8 km/h 60% 0 mm 160 W/m2
11:30 1.8 °C -5.4 °C 1010 hPa WNW 8 km/h 8 km/h 59% 0 mm 243 W/m2
11:36 1.7 °C -5.2 °C 1010 hPa West 8 km/h 8 km/h 60% 0 mm 304 W/m2
11:48 1.6 °C -5.1 °C 1010 hPa WSW 8 km/h 8 km/h 61% 0 mm 155 W/m2
11:54 1.7 °C -5.2 °C 1010 hPa West 6.4 km/h 8 km/h 60% 0 mm 149 W/m2
12:00 1.6 °C -5.4 °C 1010 hPa West 6.4 km/h 6.4 km/h 60% 0 mm 174 W/m2
12:06 1.5 °C -5.4 °C 1010 hPa WNW 8 km/h 8 km/h 60% 0 mm 211 W/m2
12:12 1.6 °C -5.4 °C 1010 hPa West 6.4 km/h 6.4 km/h 60% 0 mm 218 W/m2
12:18 1.6 °C -5.6 °C 1010 hPa SW 8 km/h 11.3 km/h 59% 0 mm 274 W/m2
12:24 1.8 °C -5.8 °C 1010 hPa WNW 8 km/h 9.7 km/h 57% 0 mm 163 W/m2
12:30 1.9 °C -5.4 °C 1010 hPa WSW 8 km/h 8 km/h 58% 0 mm 708 W/m2
12:35 2.4 °C -5.7 °C 1010 hPa West 8 km/h 9.7 km/h 55% 0 mm 301 W/m2
12:42 2.3 °C -5.8 °C 1010 hPa WSW 9.7 km/h 12.9 km/h 55% 0 mm 598 W/m2
12:48 2.7 °C -5.7 °C 1009.7 hPa West 8 km/h 12.9 km/h 54% 0 mm 455 W/m2
12:53 3.1 °C -5.3 °C 1009.7 hPa West 6.4 km/h 8 km/h 54% 0 mm 559 W/m2
13:00 2.8 °C -5.6 °C 1010 hPa WSW 4.8 km/h 4.8 km/h 54% 0 mm 193 W/m2
13:06 2.4 °C -6.2 °C 1009.7 hPa NW 6.4 km/h 12.9 km/h 53% 0 mm 246 W/m2
13:12 2.8 °C -5.6 °C 1009.7 hPa SE 6.4 km/h 6.4 km/h 54% 0 mm 457 W/m2
13:18 3 °C -6.2 °C 1009.7 hPa West 6.4 km/h 14.5 km/h 51% 0 mm 668 W/m2
13:23 2.8 °C -6.1 °C 1009.7 hPa WSW 9.7 km/h 11.3 km/h 52% 0 mm 708 W/m2
13:30 2.8 °C -6.1 °C 1009.7 hPa WSW 9.7 km/h 29 km/h 52% 0 mm 246 W/m2
13:36 2.4 °C -6.4 °C 1009.7 hPa WNW 9.7 km/h 29 km/h 52% 0 mm 420 W/m2
13:42 3 °C -6.2 °C 1009.7 hPa WSW 9.7 km/h 9.7 km/h 51% 0 mm 700 W/m2
13:48 2.8 °C -6.3 °C 1010 hPa SW 9.7 km/h 11.3 km/h 51% 0 mm 264 W/m2
13:53 2.5 °C -6.1 °C 1010 hPa West 11.3 km/h 12.9 km/h 53% 0 mm 230 W/m2
13:59 2.3 °C -6.1 °C 1010 hPa West 11.3 km/h 11.3 km/h 54% 0 mm 230 W/m2
14:05 2.3 °C -6.1 °C 1010 hPa WSW 9.7 km/h 14.5 km/h 54% 0 mm 178 W/m2
14:12 2.2 °C -5.9 °C 1010 hPa West 8 km/h 12.9 km/h 55% 0 mm 197 W/m2
14:18 2.3 °C -5.8 °C 1010.4 hPa WSW 6.4 km/h 12.9 km/h 55% 0 mm 174 W/m2
14:24 2.2 °C -5.9 °C 1010.4 hPa West 8 km/h 11.3 km/h 55% 0 mm 142 W/m2
14:30 2.2 °C -5.9 °C 1010.4 hPa West 8 km/h 8 km/h 55% 0 mm 146 W/m2
14:35 2.6 °C -5.8 °C 1010.4 hPa WSW 6.4 km/h 8 km/h 54% 0 mm 181 W/m2
14:42 2.4 °C -5.7 °C 1010.4 hPa West 6.4 km/h 6.4 km/h 55% 0 mm 139 W/m2
14:48 2.3 °C -5.6 °C 1010.7 hPa West 4.8 km/h 8 km/h 56% 0 mm 127 W/m2
14:54 2.3 °C -5.8 °C 1010.7 hPa NW 4.8 km/h 6.4 km/h 55% 0 mm 153 W/m2
15:00 2.3 °C -5.6 °C 1010.7 hPa WNW 4.8 km/h 11.3 km/h 56% 0 mm 120 W/m2
15:05 2.2 °C -5.9 °C 1011.1 hPa WNW 6.4 km/h 11.3 km/h 55% 0 mm 104 W/m2
15:12 2.1 °C -6 °C 1011.1 hPa WNW 8 km/h 8 km/h 55% 0 mm 88 W/m2
15:18 2.1 °C -6.1 °C 1011.1 hPa West 6.4 km/h 8 km/h 55% 0 mm 54 W/m2
15:23 1.9 °C -6.2 °C 1011.4 hPa SW 8 km/h 11.3 km/h 55% 0 mm 58 W/m2
15:30 1.8 °C -5.8 °C 1011.4 hPa WNW 8 km/h 8 km/h 57% 0 mm 69 W/m2
15:35 1.8 °C -5.6 °C 1011.4 hPa WSW 4.8 km/h 8 km/h 58% 0 mm 65 W/m2
15:42 1.8 °C -5.8 °C 1011.4 hPa West 3.2 km/h 4.8 km/h 57% 0 mm 109 W/m2
15:48 1.9 °C -5.4 °C 1011.4 hPa WSW 3.2 km/h 4.8 km/h 58% 0 mm 56 W/m2
15:54 1.9 °C -5.7 °C 1011.4 hPa WNW 3.2 km/h 11.3 km/h 57% 0 mm 62 W/m2
16:00 1.8 °C -5.8 °C 1011.7 hPa WSW 4.8 km/h 4.8 km/h 57% 0 mm 33 W/m2
16:06 1.8 °C -5.6 °C 1012.1 hPa WSW 6.4 km/h 6.4 km/h 58% 0 mm 26 W/m2
16:12 1.6 °C -4.7 °C 1012.1 hPa West 8 km/h 8 km/h 63% 0 mm 46 W/m2
16:18 1.1 °C -4.4 °C 1012.4 hPa WNW 9.7 km/h 16.1 km/h 67% 0 mm 70 W/m2
16:24 0.9 °C -4.3 °C 1012.4 hPa WSW 8 km/h 9.7 km/h 68% 0 mm 69 W/m2
16:29 1 °C -4.4 °C 1012.4 hPa West 6.4 km/h 6.4 km/h 67% 0 mm 63 W/m2
16:36 1.1 °C -4.4 °C 1012.4 hPa WSW 4.8 km/h 8 km/h 67% 0 mm 47 W/m2
16:42 1.1 °C -4.4 °C 1012.4 hPa West 4.8 km/h 8 km/h 67% 0 mm 44 W/m2
16:48 1.1 °C -4.4 °C 1012.4 hPa WSW 4.8 km/h 8 km/h 67% 0 mm 74 W/m2
16:54 1.1 °C -4.4 °C 1012.4 hPa SW 6.4 km/h 11.3 km/h 67% 0 mm 30 W/m2
16:59 0.9 °C -4.3 °C 1012.8 hPa West 8 km/h 8 km/h 68% 0 mm 21 W/m2
17:05 0.7 °C -4.3 °C 1012.8 hPa WSW 6.4 km/h 11.3 km/h 69% 0 mm 16 W/m2
17:12 0.6 °C -4.5 °C 1013.1 hPa West 6.4 km/h 8 km/h 69% 0 mm 12 W/m2
17:18 0.4 °C -4.4 °C 1013.1 hPa West 6.4 km/h 8 km/h 70% 0 mm 5 W/m2
17:24 0.3 °C -4.4 °C 1013.1 hPa WSW 6.4 km/h 6.4 km/h 71% 0 mm 0 W/m2
17:30 0.2 °C -4.3 °C 1013.1 hPa WNW 4.8 km/h 4.8 km/h 72% 0 mm 0 W/m2
17:35 0.1 °C -4.4 °C 1013.4 hPa WSW 3.2 km/h 4.8 km/h 72% 0 mm 0 W/m2
17:42 -0.1 °C -4.3 °C 1013.4 hPa WNW 4.8 km/h 4.8 km/h 73% 0 mm 0 W/m2
17:48 -0.2 °C -4.5 °C 1013.4 hPa West 3.2 km/h 4.8 km/h 73% 0 mm 0 W/m2
17:53 -0.2 °C -4.5 °C 1013.4 hPa West 1.6 km/h 3.2 km/h 73% 0 mm 0 W/m2
17:59 -0.2 °C -4.5 °C 1013.8 hPa Calm   3.2 km/h 73% 0 mm 0 W/m2
18:06 -0.3 °C -4.6 °C 1014.1 hPa West 1.6 km/h 3.2 km/h 73% 0 mm 0 W/m2
18:12 -0.2 °C -4.6 °C 1014.1 hPa WNW 3.2 km/h 4.8 km/h 72% 0 mm 0 W/m2
18:18 -0.1 °C -4.2 °C 1014.1 hPa NW 6.4 km/h 9.7 km/h 74% 0 mm 0 W/m2
18:24 -0.1 °C -3.8 °C 1014.1 hPa WNW 6.4 km/h 6.4 km/h 76% 0 mm 0 W/m2
18:30 -0.1 °C -3.7 °C 1014.1 hPa NW 3.2 km/h 3.2 km/h 77% 0 mm 0 W/m2
18:36 -0.1 °C -3.5 °C 1014.1 hPa NW 1.6 km/h 4.8 km/h 78% 0 mm 0 W/m2
18:42 -0.2 °C -3.1 °C 1014.4 hPa NW 1.6 km/h 4.8 km/h 81% 0 mm 0 W/m2
18:48 -0.2 °C -2.9 °C 1014.4 hPa NW 1.6 km/h 4.8 km/h 82% 0 mm 0 W/m2
18:54 -0.3 °C -2.7 °C 1014.8 hPa WNW 3.2 km/h 4.8 km/h 84% 0 mm 0 W/m2
19:00 -0.6 °C -2.8 °C 1014.8 hPa West 3.2 km/h 6.4 km/h 85% 0 mm 0 W/m2
19:06 -0.9 °C -3 °C 1014.4 hPa West 6.4 km/h 17.7 km/h 86% 0 mm 0 W/m2
19:12 -1.1 °C -3.3 °C 1014.4 hPa WSW 6.4 km/h 6.4 km/h 85% 0 mm 0 W/m2
19:18 -1.1 °C -3.3 °C 1014.4 hPa SW 3.2 km/h 8 km/h 85% 0 mm 0 W/m2
19:23 -1.2 °C -3.4 °C 1014.4 hPa SW 3.2 km/h 6.4 km/h 85% 0 mm 0 W/m2
19:29 -1.2 °C -3.5 °C 1014.4 hPa SW 3.2 km/h 3.2 km/h 84% 0 mm 0 W/m2
19:36 -1.2 °C -3.7 °C 1014.4 hPa West 3.2 km/h 3.2 km/h 83% 0 mm 0 W/m2
19:42 -1.2 °C -4 °C 1014.8 hPa West 3.2 km/h 6.4 km/h 81% 0 mm 0 W/m2
19:48 -1.3 °C -4.1 °C 1014.8 hPa WSW 3.2 km/h 6.4 km/h 81% 0 mm 0 W/m2
19:54 -1.3 °C -4.3 °C 1014.8 hPa SW 3.2 km/h 4.8 km/h 80% 0 mm 0 W/m2
19:59 -1.4 °C -4.3 °C 1014.4 hPa WSW 3.2 km/h 3.2 km/h 81% 0 mm 0 W/m2
20:05 -1.4 °C -4.3 °C 1014.8 hPa WSW 3.2 km/h 8 km/h 81% 0 mm 0 W/m2
20:12 -1.3 °C -4 °C 1014.8 hPa SW 3.2 km/h 3.2 km/h 82% 0 mm 0 W/m2
20:18 -1.3 °C -4 °C 1014.8 hPa WSW 3.2 km/h 3.2 km/h 82% 0 mm 0 W/m2
20:24 -1.3 °C -3.9 °C 1014.8 hPa WSW 3.2 km/h 6.4 km/h 82% 0 mm 0 W/m2
20:30 -1.3 °C -4.1 °C 1014.8 hPa SW 3.2 km/h 3.2 km/h 81% 0 mm 0 W/m2
20:35 -1.3 °C -4.1 °C 1014.8 hPa WSW 3.2 km/h 3.2 km/h 81% 0 mm 0 W/m2
20:42 -1.3 °C -4.2 °C 1014.8 hPa WSW 1.6 km/h 3.2 km/h 81% 0 mm 0 W/m2
20:48 -1.3 °C -4.2 °C 1015.1 hPa SSW 1.6 km/h 3.2 km/h 81% 0 mm 0 W/m2
20:54 -1.4 °C -4.4 °C 1015.1 hPa West 3.2 km/h 4.8 km/h 80% 0 mm 0 W/m2
21:00 -1.3 °C -4.5 °C 1015.1 hPa WSW 3.2 km/h 9.7 km/h 79% 0 mm 0 W/m2
21:06 -1.2 °C -4.7 °C 1015.1 hPa WSW 4.8 km/h 9.7 km/h 77% 0 mm 0 W/m2
21:12 -1.2 °C -4.8 °C 1014.8 hPa West 4.8 km/h 8 km/h 76% 0 mm 0 W/m2
21:18 -1.1 °C -4.9 °C 1014.8 hPa WSW 6.4 km/h 8 km/h 75% 0 mm 0 W/m2
21:24 -1 °C -5.1 °C 1014.8 hPa West 6.4 km/h 6.4 km/h 74% 0 mm 0 W/m2
21:29 -0.9 °C -5.2 °C 1014.4 hPa West 6.4 km/h 6.4 km/h 73% 0 mm 0 W/m2
21:36 -0.9 °C -5.3 °C 1014.4 hPa West 4.8 km/h 6.4 km/h 72% 0 mm 0 W/m2
21:42 -0.9 °C -5.3 °C 1014.4 hPa WSW 3.2 km/h 4.8 km/h 72% 0 mm 0 W/m2
21:48 -0.8 °C -5.4 °C 1014.4 hPa SW 3.2 km/h 8 km/h 71% 0 mm 0 W/m2
21:53 -0.7 °C -5.4 °C 1014.4 hPa WSW 4.8 km/h 9.7 km/h 70% 0 mm 0 W/m2
21:59 -0.6 °C -5.4 °C 1014.4 hPa WSW 6.4 km/h 8 km/h 70% 0 mm 0 W/m2
22:05 -0.6 °C -5.4 °C 1014.4 hPa WSW 6.4 km/h 8 km/h 70% 0 mm 0 W/m2
22:12 -0.7 °C -5.7 °C 1014.4 hPa WSW 4.8 km/h 8 km/h 69% 0 mm 0 W/m2
22:18 -0.7 °C -5.7 °C 1014.1 hPa West 4.8 km/h 11.3 km/h 69% 0 mm 0 W/m2
22:24 -0.6 °C -5.6 °C 1014.4 hPa WSW 6.4 km/h 6.4 km/h 69% 0 mm 0 W/m2
22:30 -0.7 °C -5.7 °C 1014.1 hPa WSW 4.8 km/h 4.8 km/h 69% 0 mm 0 W/m2
22:35 -0.9 °C -5.9 °C 1014.1 hPa SW 3.2 km/h 4.8 km/h 69% 0 mm 0 W/m2
22:42 -1.1 °C -6.1 °C 1014.4 hPa SW 1.6 km/h 6.4 km/h 69% 0 mm 0 W/m2
22:48 -1.2 °C -6 °C 1014.4 hPa SW 1.6 km/h 6.4 km/h 70% 0 mm 0 W/m2
22:54 -1.4 °C -6.2 °C 1014.4 hPa West 1.6 km/h 6.4 km/h 70% 0 mm 0 W/m2
22:59 -1.5 °C -6.3 °C 1014.4 hPa SW 1.6 km/h 1.6 km/h 70% 0 mm 0 W/m2
23:05 -1.5 °C -6.3 °C 1014.4 hPa WSW 3.2 km/h 3.2 km/h 70% 0 mm 0 W/m2
23:12 -1.4 °C -6.2 °C 1014.4 hPa WSW 3.2 km/h 3.2 km/h 70% 0 mm 0 W/m2
23:18 -1.6 °C -6.3 °C 1014.4 hPa WSW 1.6 km/h 6.4 km/h 70% 0 mm 0 W/m2
23:23 -1.6 °C -6.3 °C 1014.4 hPa West 3.2 km/h 4.8 km/h 70% 0 mm 0 W/m2
23:30 -1.6 °C -6.3 °C 1014.4 hPa West 3.2 km/h 3.2 km/h 70% 0 mm 0 W/m2
23:36 -1.6 °C -6.3 °C 1014.4 hPa West 3.2 km/h 3.2 km/h 70% 0 mm 0 W/m2
23:42 -1.6 °C -6.4 °C 1014.4 hPa West 3.2 km/h 4.8 km/h 70% 0 mm 0 W/m2
23:48 -1.6 °C -6.4 °C 1014.4 hPa West 3.2 km/h 6.4 km/h 70% 0 mm 0 W/m2
23:53 -1.7 °C -6.5 °C 1014.4 hPa West 3.2 km/h 6.4 km/h 70% 0 mm 0 W/m2
Country Meadow, Clay, NY, USA
Compliments of Weather Underground - 2 mb